createdAt,value
2023-03-05T00:01:45.674Z,41.43
2023-03-05T00:04:47.038Z,34.53
2023-03-05T00:07:48.864Z,34.17
2023-03-05T00:11:01.172Z,33.67
2023-03-05T00:14:04.369Z,33.67
2023-03-05T00:17:05.806Z,34.30
2023-03-05T00:20:08.035Z,33.10
2023-03-05T00:23:09.418Z,35.53
2023-03-05T00:26:11.912Z,38.10
2023-03-05T00:29:18.296Z,34.90
2023-03-05T00:32:19.792Z,35.87
2023-03-05T00:35:21.209Z,33.20
2023-03-05T00:38:23.111Z,37.33
2023-03-05T00:41:25.301Z,38.90
2023-03-05T00:44:26.694Z,35.63
2023-03-05T00:47:28.332Z,34.63
2023-03-05T00:50:29.714Z,29.93
2023-03-05T00:53:31.349Z,37.57
2023-03-05T00:56:32.848Z,31.13
2023-03-05T00:59:34.216Z,31.93
2023-03-05T01:02:35.658Z,36.73
2023-03-05T01:05:37.149Z,36.23
2023-03-05T01:08:39.413Z,34.73
2023-03-05T01:11:40.858Z,32.00
2023-03-05T01:14:42.258Z,35.10
2023-03-05T01:17:43.634Z,41.87
2023-03-05T01:20:45.270Z,35.47
2023-03-05T01:23:46.749Z,37.57
2023-03-05T01:26:49.288Z,35.97
2023-03-05T01:29:50.713Z,32.60
2023-03-05T01:32:52.845Z,32.40
2023-03-05T01:35:54.312Z,33.63
2023-03-05T01:38:55.759Z,31.73
2023-03-05T01:41:57.177Z,32.13
2023-03-05T01:45:02.653Z,34.97
2023-03-05T01:48:04.334Z,36.70
2023-03-05T01:51:06.185Z,32.57
2023-03-05T01:54:11.005Z,33.30
2023-03-05T01:57:20.867Z,30.23
2023-03-05T02:00:27.617Z,33.50
2023-03-05T02:03:29.039Z,35.80
2023-03-05T02:06:31.147Z,33.60
2023-03-05T02:09:32.605Z,36.57
2023-03-05T02:12:34.552Z,34.77
2023-03-05T02:15:37.631Z,36.73
2023-03-05T02:18:39.027Z,33.17
2023-03-05T02:21:47.246Z,35.97
2023-03-05T02:24:49.843Z,35.53
2023-03-05T02:28:42.303Z,34.30
2023-03-05T02:31:43.750Z,32.87
2023-03-05T02:34:45.160Z,33.57
2023-03-05T02:37:46.996Z,38.03
2023-03-05T02:40:48.541Z,33.83
2023-03-05T02:48:38.753Z,30.00
2023-03-05T02:51:40.573Z,34.90
2023-03-05T02:54:42.861Z,33.80
2023-03-05T02:57:44.408Z,34.53
2023-03-05T03:00:46.865Z,38.37
2023-03-05T03:03:48.323Z,36.43
2023-03-05T03:06:49.742Z,34.00
2023-03-05T03:09:51.253Z,29.47
2023-03-05T03:12:52.676Z,33.47
2023-03-05T03:16:09.408Z,35.30
2023-03-05T03:19:11.061Z,36.10
2023-03-05T03:22:14.326Z,30.57
2023-03-05T03:25:18.027Z,34.50
2023-03-05T03:28:19.986Z,33.73
2023-03-05T03:31:21.895Z,33.40
2023-03-05T03:34:23.499Z,29.53
2023-03-05T03:37:24.918Z,31.97
2023-03-05T03:40:26.370Z,35.60
2023-03-05T03:43:27.763Z,29.80
2023-03-05T03:46:29.268Z,33.00
2023-03-05T03:49:30.672Z,33.97
2023-03-05T03:52:32.050Z,28.97
2023-03-05T03:55:34.397Z,30.87
2023-03-05T03:58:35.849Z,32.93
2023-03-05T04:01:37.338Z,30.57
2023-03-05T04:04:38.787Z,30.23
2023-03-05T04:07:40.188Z,33.77
2023-03-05T04:10:41.704Z,33.73
2023-03-05T04:13:43.121Z,32.10
2023-03-05T04:16:44.524Z,33.67
2023-03-05T04:19:45.958Z,33.20
2023-03-05T04:22:47.340Z,33.87
2023-03-05T04:25:48.844Z,31.37
2023-03-05T04:28:50.256Z,31.83
2023-03-05T04:31:51.723Z,36.70
2023-03-05T04:34:53.124Z,34.07
2023-03-05T04:37:54.511Z,33.63
2023-03-05T04:40:55.898Z,35.10
2023-03-05T04:43:57.290Z,31.70
2023-03-05T04:46:58.681Z,32.30
2023-03-05T04:50:00.249Z,33.20
2023-03-05T04:53:01.789Z,34.67
2023-03-05T04:56:03.457Z,29.13
2023-03-05T04:59:04.923Z,36.00
2023-03-05T05:02:06.452Z,30.93
2023-03-05T05:05:09.558Z,34.67
2023-03-05T05:08:11.090Z,33.17
2023-03-05T05:11:14.337Z,33.87
2023-03-05T05:14:15.757Z,33.03
2023-03-05T05:17:17.158Z,34.03
2023-03-05T05:20:18.717Z,34.17
2023-03-05T05:23:20.137Z,32.23
2023-03-05T05:26:21.582Z,32.97
2023-03-05T05:29:23.260Z,31.47
2023-03-05T05:32:25.456Z,33.97
2023-03-05T05:35:27.349Z,38.87
2023-03-05T05:38:28.795Z,34.87
2023-03-05T05:41:30.303Z,32.70
2023-03-05T05:44:33.426Z,32.90
2023-03-05T05:47:34.816Z,35.00
2023-03-05T05:50:38.779Z,32.70
2023-03-05T05:53:41.103Z,34.30
2023-03-05T05:56:42.543Z,36.70
2023-03-05T05:59:44.126Z,35.47
2023-03-05T06:02:45.643Z,35.37
2023-03-05T06:05:47.621Z,36.43
2023-03-05T06:08:50.037Z,32.27
2023-03-05T06:11:51.516Z,33.73
2023-03-05T06:14:53.805Z,34.60
2023-03-05T06:17:55.207Z,40.13
2023-03-05T06:20:58.682Z,36.17
2023-03-05T06:24:00.638Z,33.73
2023-03-05T06:27:02.039Z,38.23
2023-03-05T06:30:04.804Z,39.07
2023-03-05T06:33:06.859Z,40.73
2023-03-05T06:36:11.434Z,34.67
2023-03-05T06:39:12.879Z,37.03
2023-03-05T06:42:14.296Z,39.57
2023-03-05T06:45:15.687Z,38.57
2023-03-05T06:48:17.086Z,35.57
2023-03-05T06:51:24.697Z,37.87
2023-03-05T06:54:26.120Z,34.67
2023-03-05T06:57:27.508Z,36.97
2023-03-05T07:00:30.638Z,33.57
2023-03-05T07:03:32.077Z,38.20
2023-03-05T07:06:36.021Z,37.27
2023-03-05T07:09:42.789Z,36.17
2023-03-05T07:12:44.176Z,37.77
2023-03-05T07:15:45.669Z,35.40
2023-03-05T07:18:48.028Z,38.40
2023-03-05T07:21:49.424Z,35.57
2023-03-05T07:24:51.031Z,34.70
2023-03-05T07:27:52.406Z,40.00
2023-03-05T07:31:02.651Z,35.77
2023-03-05T07:34:04.294Z,37.67
2023-03-05T07:37:05.692Z,40.00
2023-03-05T07:40:07.828Z,38.57
2023-03-05T07:43:09.230Z,32.40
2023-03-05T07:46:13.848Z,37.47
2023-03-05T07:49:15.340Z,34.13
2023-03-05T07:52:17.520Z,35.67
2023-03-05T07:55:18.946Z,34.90
2023-03-05T07:58:20.379Z,39.30
2023-03-05T08:01:22.052Z,36.73
2023-03-05T08:04:23.750Z,39.37
2023-03-05T08:07:25.231Z,36.53
2023-03-05T08:10:26.795Z,34.00
2023-03-05T08:13:28.205Z,34.17
2023-03-05T08:16:29.798Z,35.10
2023-03-05T08:19:32.708Z,37.33
2023-03-05T08:22:34.984Z,40.47
2023-03-05T08:25:36.451Z,37.33
2023-03-05T08:28:38.025Z,34.40
2023-03-05T08:31:44.612Z,39.87
2023-03-05T08:34:46.599Z,31.47
2023-03-05T08:37:48.419Z,33.47
2023-03-05T08:40:49.820Z,34.50
2023-03-05T08:43:51.209Z,34.50
2023-03-05T08:46:52.681Z,31.73
2023-03-05T08:49:58.331Z,28.37
2023-03-05T08:53:00.106Z,30.57
2023-03-05T08:56:01.765Z,31.73
2023-03-05T08:59:04.292Z,33.53
2023-03-05T09:02:05.849Z,29.27
2023-03-05T09:05:07.808Z,29.80
2023-03-05T09:08:09.460Z,28.33
2023-03-05T09:11:13.076Z,25.50
2023-03-05T09:14:14.489Z,27.00
2023-03-05T09:17:15.885Z,28.07
2023-03-05T09:20:17.598Z,23.10
2023-03-05T09:23:19.346Z,21.00
2023-03-05T09:26:21.163Z,21.43
2023-03-05T09:29:22.706Z,26.17
2023-03-05T09:32:24.093Z,24.93
2023-03-05T09:35:25.495Z,17.87
2023-03-05T09:38:27.553Z,25.77
2023-03-05T09:41:52.021Z,24.53
2023-03-05T09:45:11.997Z,24.70
2023-03-05T09:48:24.420Z,22.00
2023-03-05T09:51:31.364Z,22.10
2023-03-05T09:54:40.762Z,22.87
2023-03-05T09:57:46.792Z,19.80
2023-03-05T10:00:56.865Z,26.87
2023-03-05T10:04:09.124Z,24.70
2023-03-05T10:07:29.830Z,22.27
2023-03-05T10:10:41.060Z,22.73
2023-03-05T10:13:45.243Z,19.83
2023-03-05T10:16:59.735Z,22.70
2023-03-05T10:20:25.482Z,19.17
2023-03-05T10:23:31.505Z,18.53
2023-03-05T10:26:44.338Z,21.83
2023-03-05T10:29:59.564Z,17.97
2023-03-05T10:33:14.738Z,17.50
2023-03-05T10:36:38.827Z,17.80
2023-03-05T10:39:49.950Z,21.67
2023-03-05T10:43:04.778Z,19.87
2023-03-05T10:46:15.870Z,15.67
2023-03-05T10:49:25.059Z,20.17
2023-03-05T10:52:37.978Z,15.37
2023-03-05T10:55:40.023Z,17.37
2023-03-05T10:58:41.431Z,17.50
2023-03-05T11:02:02.336Z,18.73
2023-03-05T11:05:05.246Z,23.17
2023-03-05T11:08:27.500Z,18.23
2023-03-05T11:11:31.356Z,10.57
2023-03-05T11:14:34.688Z,12.23
2023-03-05T11:17:43.086Z,10.03
2023-03-05T11:20:45.199Z,11.63
2023-03-05T11:24:06.168Z,10.07
2023-03-05T11:27:34.927Z,11.90
2023-03-05T11:30:37.309Z,13.33
2023-03-05T11:33:38.890Z,20.13
2023-03-05T11:36:43.219Z,11.73
2023-03-05T11:39:46.089Z,12.40
2023-03-05T11:42:55.403Z,13.13
2023-03-05T11:46:03.207Z,14.87
2023-03-05T11:49:07.039Z,11.20
2023-03-05T11:52:15.285Z,9.10
2023-03-05T11:55:28.160Z,8.80
2023-03-05T11:58:33.033Z,8.27
2023-03-05T12:01:43.849Z,10.20
2023-03-05T12:04:46.286Z,8.30
2023-03-05T12:07:52.618Z,8.47
2023-03-05T12:10:54.318Z,7.77
2023-03-05T12:14:20.171Z,6.73
2023-03-05T12:17:28.591Z,10.40
2023-03-05T12:20:47.798Z,7.53
2023-03-05T12:23:55.287Z,7.70
2023-03-05T12:27:07.797Z,9.43
2023-03-05T12:30:35.168Z,11.90
2023-03-05T12:33:39.617Z,7.47
2023-03-05T12:36:41.612Z,8.90
2023-03-05T12:39:47.622Z,9.60
2023-03-05T12:42:53.707Z,5.60
2023-03-05T12:46:29.303Z,7.37
2023-03-05T12:49:38.764Z,6.53
2023-03-05T12:52:45.603Z,9.63
2023-03-05T12:56:16.465Z,6.93
2023-03-05T12:59:22.342Z,7.13
2023-03-05T13:02:45.207Z,6.13
2023-03-05T13:05:53.181Z,6.77
2023-03-05T13:09:03.697Z,6.87
2023-03-05T13:12:13.270Z,6.83
2023-03-05T13:15:15.493Z,7.20
2023-03-05T13:18:25.849Z,6.53
2023-03-05T13:21:30.601Z,5.77
2023-03-05T13:24:32.049Z,8.37
2023-03-05T13:27:34.303Z,6.47
2023-03-05T13:30:35.782Z,8.00
2023-03-05T13:33:37.449Z,8.47
2023-03-05T13:36:39.961Z,16.93
2023-03-05T13:39:47.800Z,34.97
2023-03-05T13:42:50.070Z,8.53
2023-03-05T13:45:56.394Z,7.90
2023-03-05T13:49:17.197Z,6.57
2023-03-05T13:52:36.342Z,5.47
2023-03-05T13:55:38.621Z,4.03
2023-03-05T13:58:40.479Z,6.87
2023-03-05T14:01:44.416Z,4.97
2023-03-05T14:04:47.208Z,5.03
2023-03-05T14:07:50.850Z,4.93
2023-03-05T14:10:57.147Z,6.07
2023-03-05T14:14:06.566Z,5.90
2023-03-05T14:17:36.332Z,5.33
2023-03-05T14:20:39.913Z,5.33
2023-03-05T14:23:46.965Z,4.37
2023-03-05T14:26:56.395Z,4.80
2023-03-05T14:29:57.875Z,18.83
2023-03-05T14:33:00.560Z,3.50
2023-03-05T14:36:03.088Z,8.03
2023-03-05T14:39:04.990Z,4.50
2023-03-05T14:42:26.883Z,4.47
2023-03-05T14:45:31.153Z,4.90
2023-03-05T14:48:32.592Z,4.33
2023-03-05T14:51:39.040Z,4.43
2023-03-05T14:54:40.429Z,5.27
2023-03-05T14:57:42.105Z,5.47
2023-03-05T15:00:44.087Z,3.80
2023-03-05T15:03:45.513Z,4.03
2023-03-05T15:06:50.782Z,7.90
2023-03-05T15:09:52.380Z,5.70
2023-03-05T15:12:53.855Z,4.57
2023-03-05T15:15:55.695Z,7.70
2023-03-05T15:18:57.348Z,5.67
2023-03-05T15:21:58.869Z,5.97
2023-03-05T15:25:00.344Z,5.00
2023-03-05T15:28:02.109Z,6.73
2023-03-05T15:31:05.060Z,9.47
2023-03-05T15:34:06.823Z,7.23
2023-03-05T15:37:08.313Z,6.10
2023-03-05T15:40:10.336Z,4.60
2023-03-05T15:43:11.765Z,5.50
2023-03-05T15:46:13.271Z,5.10
2023-03-05T15:49:15.219Z,4.40
2023-03-05T15:52:16.666Z,4.50
2023-03-05T15:55:20.971Z,5.50
2023-03-05T15:58:22.463Z,4.80
2023-03-05T16:01:23.903Z,4.43
2023-03-05T16:04:25.372Z,7.17
2023-03-05T16:07:27.700Z,6.80
2023-03-05T16:10:30.400Z,4.83
2023-03-05T16:13:32.778Z,4.90
2023-03-05T16:16:36.243Z,5.07
2023-03-05T16:19:42.450Z,7.60
2023-03-05T16:22:44.438Z,4.07
2023-03-05T16:25:46.192Z,21.07
2023-03-05T16:28:47.577Z,12.33
2023-03-05T16:31:49.170Z,4.87
2023-03-05T16:34:50.656Z,5.17
2023-03-05T16:37:52.100Z,11.13
2023-03-05T16:41:07.205Z,18.43
2023-03-05T16:44:09.325Z,14.87
2023-03-05T16:47:12.182Z,10.53
2023-03-05T16:50:13.632Z,6.77
2023-03-05T16:53:15.031Z,6.90
2023-03-05T16:56:16.711Z,8.57
2023-03-05T16:59:18.142Z,6.23
2023-03-05T17:02:19.568Z,5.40
2023-03-05T17:05:20.995Z,6.37
2023-03-05T17:08:24.262Z,5.40
2023-03-05T17:11:25.845Z,6.70
2023-03-05T17:14:27.445Z,5.07
2023-03-05T17:17:28.913Z,5.23
2023-03-05T17:20:30.607Z,5.57
2023-03-05T17:23:36.972Z,7.80
2023-03-05T17:26:38.384Z,7.30
2023-03-05T17:29:39.911Z,6.60
2023-03-05T17:32:41.574Z,5.67
2023-03-05T17:35:47.191Z,7.33
2023-03-05T17:38:49.577Z,6.53
2023-03-05T17:41:51.002Z,9.87
2023-03-05T17:44:52.495Z,6.40
2023-03-05T17:47:54.260Z,7.87
2023-03-05T17:50:55.988Z,7.20
2023-03-05T17:53:58.619Z,9.70
2023-03-05T17:57:00.731Z,11.00
2023-03-05T18:00:03.541Z,12.07
2023-03-05T18:03:13.501Z,12.47
2023-03-05T18:06:15.829Z,15.00
2023-03-05T18:09:17.450Z,13.10
2023-03-05T18:12:18.826Z,13.27
2023-03-05T18:15:22.280Z,11.70
2023-03-05T18:18:23.687Z,11.13
2023-03-05T18:21:27.847Z,9.87
2023-03-05T18:24:29.230Z,12.67
2023-03-05T18:27:31.055Z,11.83
2023-03-05T18:30:33.218Z,10.90
2023-03-05T18:33:35.074Z,13.20
2023-03-05T18:36:36.515Z,9.13
2023-03-05T18:39:38.168Z,9.77
2023-03-05T18:42:39.554Z,10.40
2023-03-05T18:45:40.996Z,10.43
2023-03-05T18:48:42.732Z,9.47
2023-03-05T18:51:45.606Z,8.13
2023-03-05T18:54:47.098Z,9.27
2023-03-05T18:57:49.236Z,11.47
2023-03-05T19:00:51.802Z,7.30
2023-03-05T19:03:53.513Z,9.57
2023-03-05T19:06:54.913Z,7.17
2023-03-05T19:09:59.599Z,6.97
2023-03-05T19:13:18.569Z,7.23
2023-03-05T19:16:30.294Z,11.07
2023-03-05T19:19:31.692Z,7.30
2023-03-05T19:22:33.730Z,7.33
2023-03-05T19:25:36.554Z,7.90
2023-03-05T19:28:38.027Z,7.87
2023-03-05T19:31:39.533Z,8.57
2023-03-05T19:34:41.899Z,8.70
2023-03-05T19:37:45.772Z,13.30
2023-03-05T19:40:47.492Z,10.20
2023-03-05T19:43:50.032Z,10.80
2023-03-05T19:46:51.474Z,16.10
2023-03-05T19:49:52.880Z,12.13
2023-03-05T19:52:54.351Z,11.47
2023-03-05T19:55:56.449Z,13.60
2023-03-05T19:58:57.876Z,13.67
2023-03-05T20:01:59.398Z,15.10
2023-03-05T20:05:00.944Z,14.57
2023-03-05T20:08:02.686Z,14.13
2023-03-05T20:11:04.701Z,13.73
2023-03-05T20:14:07.297Z,13.20
2023-03-05T20:17:08.756Z,12.63
2023-03-05T20:20:13.097Z,10.97
2023-03-05T20:23:14.518Z,12.10
2023-03-05T20:26:16.432Z,12.17
2023-03-05T20:29:18.691Z,15.33
2023-03-05T20:32:20.295Z,12.80
2023-03-05T20:35:21.844Z,11.33
2023-03-05T20:38:25.277Z,12.17
2023-03-05T20:41:26.876Z,12.60
2023-03-05T20:44:28.349Z,12.50
2023-03-05T20:47:40.523Z,15.30
2023-03-05T20:50:42.136Z,14.47
2023-03-05T20:53:43.564Z,17.77
2023-03-05T20:56:45.161Z,18.43
2023-03-05T20:59:46.615Z,19.57
2023-03-05T21:02:50.988Z,20.30
2023-03-05T21:05:55.644Z,27.57
2023-03-05T21:08:57.197Z,17.90
2023-03-05T21:11:58.574Z,18.83
2023-03-05T21:15:00.282Z,18.07
2023-03-05T21:18:01.895Z,21.30
2023-03-05T21:21:03.753Z,21.93
2023-03-05T21:24:05.549Z,21.17
2023-03-05T21:27:06.938Z,21.80
2023-03-05T21:30:11.152Z,18.73
2023-03-05T21:33:22.969Z,20.93
2023-03-05T21:36:24.480Z,18.47
2023-03-05T21:39:25.876Z,18.27
2023-03-05T21:42:27.310Z,19.87
2023-03-05T21:45:30.186Z,21.43
2023-03-05T21:48:32.124Z,19.63
2023-03-05T21:51:40.485Z,20.13
2023-03-05T21:54:42.836Z,21.50
2023-03-05T21:57:45.120Z,19.27
2023-03-05T22:00:46.520Z,18.97
2023-03-05T22:03:49.359Z,18.37
2023-03-05T22:06:50.798Z,18.10
2023-03-05T22:09:56.360Z,18.30
2023-03-05T22:13:11.456Z,16.90
2023-03-05T22:16:21.310Z,17.77
2023-03-05T22:19:22.745Z,20.50
2023-03-05T22:22:24.126Z,19.70
2023-03-05T22:25:25.499Z,19.90
2023-03-05T22:28:27.592Z,18.80
2023-03-05T22:31:30.328Z,18.33
2023-03-05T22:34:31.738Z,20.47
2023-03-05T22:37:33.460Z,19.73
2023-03-05T22:40:36.889Z,20.27
2023-03-05T22:43:38.813Z,17.63
2023-03-05T22:46:40.244Z,18.57
2023-03-05T22:49:41.739Z,17.60
2023-03-05T22:52:43.286Z,18.60
2023-03-05T22:55:44.756Z,22.33
2023-03-05T22:58:46.196Z,18.73
2023-03-05T23:01:47.637Z,17.40
2023-03-05T23:04:53.195Z,20.70
2023-03-05T23:07:54.674Z,19.37
2023-03-05T23:10:56.090Z,18.27
2023-03-05T23:13:57.476Z,21.63
2023-03-05T23:16:58.862Z,20.40
2023-03-05T23:20:00.277Z,23.50
2023-03-05T23:23:02.148Z,21.87
2023-03-05T23:26:03.530Z,18.20
2023-03-05T23:29:04.929Z,21.07
2023-03-05T23:32:06.515Z,20.77
2023-03-05T23:35:10.494Z,20.17
2023-03-05T23:38:13.894Z,19.07
2023-03-05T23:41:15.353Z,20.37
2023-03-05T23:44:16.797Z,20.47
2023-03-05T23:47:18.176Z,28.33
2023-03-05T23:50:29.079Z,21.47
2023-03-05T23:53:32.740Z,19.87
2023-03-05T23:56:34.120Z,20.47
2023-03-05T23:59:36.010Z,19.37
